Time;durP1;ratioP1;P1;durP2;ratioP2;P2;SDS_P1;SDS_P2;PMS_P1;PMS_P2;Temp;Humidity;BMP_temperature;BMP_pressure;BME280_temperature;BME280_humidity;BME280_pressure;Samples;Min_cycle;Max_cycle;Signal;HPM_P1;HPM_P2
2023/06/23 00:00:13;;;;;;;6.88;5.75;;;28.70;77.40;;;;;;5013855;28;20057;-93
2023/06/23 00:02:40;;;;;;;8.60;5.75;;;28.60;77.10;;;;;;4996052;28;20029;-93
2023/06/23 00:05:12;;;;;;;7.35;5.43;;;28.60;77.30;;;;;;5011020;28;20084;-93
2023/06/23 00:07:39;;;;;;;6.45;5.60;;;28.60;77.30;;;;;;5012590;28;20053;-93
2023/06/23 00:10:05;;;;;;;6.43;5.35;;;28.60;77.60;;;;;;5013208;28;20048;-92
2023/06/23 00:12:43;;;;;;;6.15;5.55;;;28.50;77.60;;;;;;5014090;28;20029;-94
2023/06/23 00:15:15;;;;;;;6.85;4.93;;;28.50;77.60;;;;;;5012082;28;20026;-92
2023/06/23 00:17:44;;;;;;;9.55;5.10;;;28.50;78.10;;;;;;5010701;28;20021;-92
2023/06/23 00:20:14;;;;;;;7.18;4.95;;;28.40;77.50;;;;;;5011862;28;20080;-93
2023/06/23 00:22:40;;;;;;;;;;;28.40;77.70;;;;;;5013979;28;20486;-92
2023/06/23 00:25:09;;;;;;;7.28;4.90;;;28.40;77.80;;;;;;5013523;28;19909;-92
2023/06/23 00:27:39;;;;;;;6.40;5.00;;;28.40;77.70;;;;;;4993209;28;20045;-93
2023/06/23 00:30:07;;;;;;;8.23;5.50;;;28.40;77.80;;;;;;5012867;28;20030;-92
2023/06/23 00:32:35;;;;;;;6.57;5.35;;;28.40;77.80;;;;;;5012857;28;20048;-93
2023/06/23 00:35:00;;;;;;;8.52;5.65;;;28.40;77.70;;;;;;5012286;28;20033;-92
2023/06/23 00:37:32;;;;;;;5.53;4.97;;;28.40;77.60;;;;;;5012806;28;20458;-91
2023/06/23 00:40:00;;;;;;;8.15;5.50;;;28.40;77.70;;;;;;5012564;28;20026;-92
2023/06/23 00:42:52;;;;;;;5.97;5.25;;;28.40;77.90;;;;;;5014202;28;20025;-92
2023/06/23 00:45:19;;;;;;;9.02;5.55;;;28.40;78.10;;;;;;5007852;28;20034;-92
2023/06/23 00:47:46;;;;;;;5.93;5.32;;;28.30;78.20;;;;;;5013268;28;20034;-92
2023/06/23 00:50:15;;;;;;;8.23;5.80;;;28.30;78.10;;;;;;5014135;28;20367;-92
2023/06/23 00:52:49;;;;;;;6.13;5.53;;;28.30;78.20;;;;;;5012238;28;20025;-93
2023/06/23 00:55:19;;;;;;;12.75;6.22;;;28.30;78.30;;;;;;5007383;28;20137;-93
2023/06/23 00:57:46;;;;;;;12.70;6.57;;;28.30;78.20;;;;;;5012536;28;20076;-94
2023/06/23 01:00:19;;;;;;;8.27;5.43;;;28.30;78.50;;;;;;5014389;28;20036;-91
2023/06/23 01:02:48;;;;;;;7.80;5.47;;;28.30;78.50;;;;;;5012815;28;20029;-92
2023/06/23 01:05:21;;;;;;;6.30;5.15;;;28.30;78.70;;;;;;5014926;28;20424;-91
2023/06/23 01:08:08;;;;;;;9.93;6.32;;;28.30;78.70;;;;;;5008736;28;20050;-92
2023/06/23 01:11:12;;;;;;;7.88;5.32;;;28.30;78.60;;;;;;5013264;28;20042;-93
2023/06/23 01:13:40;;;;;;;9.23;6.10;;;28.30;78.80;;;;;;5012918;28;20105;-92
2023/06/23 01:16:28;;;;;;;8.20;6.35;;;28.20;78.80;;;;;;5011946;28;20367;-93
2023/06/23 01:19:28;;;;;;;7.65;6.63;;;28.20;79.00;;;;;;5003852;28;20037;-93
2023/06/23 01:22:10;;;;;;;10.10;6.30;;;28.10;79.20;;;;;;5009947;28;20553;-94
2023/06/23 01:24:57;;;;;;;8.43;5.97;;;28.10;79.10;;;;;;5013214;28;20058;-92
2023/06/23 01:27:36;;;;;;;10.13;6.68;;;28.10;79.20;;;;;;5010569;28;20033;-95
2023/06/23 01:30:06;;;;;;;8.30;6.80;;;28.10;79.20;;;;;;5038695;28;20048;-95
2023/06/23 01:32:44;;;;;;;7.72;6.55;;;28.10;79.30;;;;;;5027343;28;20072;-95
2023/06/23 01:35:15;;;;;;;9.05;7.53;;;28.00;79.30;;;;;;5027850;28;20060;-94
2023/06/23 01:37:47;;;;;;;7.07;6.13;;;28.00;79.40;;;;;;5047404;28;20109;-93
2023/06/23 01:40:15;;;;;;;8.13;6.40;;;27.90;79.30;;;;;;5020094;28;20026;-94
2023/06/23 01:42:49;;;;;;;9.93;8.13;;;27.90;79.30;;;;;;5035725;28;20030;-94
2023/06/23 01:45:39;;;;;;;8.63;7.63;;;27.90;79.40;;;;;;5034935;28;20036;-91
2023/06/23 01:48:10;;;;;;;13.73;7.40;;;27.90;79.50;;;;;;5034204;28;20097;-94
2023/06/23 01:50:39;;;;;;;10.68;6.32;;;27.80;79.40;;;;;;5035792;28;20030;-94
2023/06/23 01:53:08;;;;;;;10.67;6.97;;;27.80;79.60;;;;;;5034715;28;20061;-94
2023/06/23 01:55:38;;;;;;;7.38;6.63;;;27.70;79.50;;;;;;5032712;28;20034;-93
2023/06/23 01:58:13;;;;;;;10.55;7.10;;;27.70;79.60;;;;;;5032539;28;20022;-95
2023/06/23 02:00:39;;;;;;;8.80;7.07;;;27.70;79.60;;;;;;5010303;28;20140;-91
2023/06/23 02:03:14;;;;;;;6.88;6.18;;;27.70;79.60;;;;;;5033396;28;20052;-94
2023/06/23 02:05:48;;;;;;;9.10;6.03;;;27.70;80.10;;;;;;5031499;28;20026;-92
2023/06/23 02:08:23;;;;;;;7.75;6.40;;;27.70;79.60;;;;;;5022172;28;20030;-93
2023/06/23 02:10:54;;;;;;;8.95;6.72;;;27.70;79.60;;;;;;5027336;28;20026;-93
2023/06/23 02:13:27;;;;;;;10.32;7.07;;;27.80;79.80;;;;;;5026555;28;20050;-94
2023/06/23 02:16:01;;;;;;;8.82;7.18;;;27.80;79.70;;;;;;5027466;28;20053;-93
2023/06/23 02:18:35;;;;;;;8.98;6.20;;;27.70;79.60;;;;;;5021968;28;20026;-94
2023/06/23 02:21:04;;;;;;;9.27;7.18;;;27.70;79.70;;;;;;5020355;28;20038;-93
2023/06/23 02:23:32;;;;;;;11.27;7.40;;;27.80;79.70;;;;;;5023812;28;20068;-93
2023/06/23 02:26:03;;;;;;;9.32;6.90;;;27.80;79.50;;;;;;5020043;28;20034;-95
2023/06/23 02:28:29;;;;;;;9.82;6.60;;;27.80;79.50;;;;;;5023839;28;20042;-93
2023/06/23 02:31:17;;;;;;;11.30;6.38;;;27.80;79.50;;;;;;5023190;28;20044;-94
2023/06/23 02:33:42;;;;;;;6.72;5.90;;;27.80;79.60;;;;;;5022948;28;20037;-95
2023/06/23 02:36:22;;;;;;;8.50;6.43;;;27.80;79.60;;;;;;5022797;28;20485;-93
2023/06/23 02:38:55;;;;;;;8.00;5.88;;;27.80;79.50;;;;;;5023622;28;20038;-95
2023/06/23 02:41:26;;;;;;;8.10;6.20;;;27.80;79.50;;;;;;5022850;28;20054;-93
2023/06/23 02:43:57;;;;;;;11.38;7.10;;;27.80;79.40;;;;;;5026034;28;20037;-94
2023/06/23 02:46:29;;;;;;;11.77;6.88;;;27.80;79.30;;;;;;5025388;28;20116;-93
2023/06/23 02:49:02;;;;;;;8.77;6.13;;;27.80;79.30;;;;;;5031740;28;20064;-92
2023/06/23 02:51:30;;;;;;;11.05;6.93;;;27.80;79.40;;;;;;5035046;28;20018;-92
2023/06/23 02:54:11;;;;;;;8.70;7.22;;;27.80;79.30;;;;;;5033601;28;20042;-93
2023/06/23 02:56:42;;;;;;;11.00;7.28;;;27.80;79.10;;;;;;5032020;28;20129;-94
2023/06/23 02:59:11;;;;;;;9.55;6.60;;;27.80;79.20;;;;;;5025357;28;20045;-93
2023/06/23 03:01:40;;;;;;;9.95;6.45;;;27.80;79.30;;;;;;5015748;28;20045;-94
2023/06/23 03:04:06;;;;;;;8.57;6.72;;;27.80;79.40;;;;;;5031382;28;20038;-92
2023/06/23 03:06:35;;;;;;;9.07;6.88;;;27.80;79.80;;;;;;5030794;28;20050;-91
2023/06/23 03:09:06;;;;;;;8.80;6.67;;;27.80;79.80;;;;;;5033523;28;20028;-94
2023/06/23 03:11:33;;;;;;;13.77;8.00;;;27.80;79.60;;;;;;5032601;28;20030;-93
2023/06/23 03:14:07;;;;;;;14.05;7.82;;;27.70;79.40;;;;;;5031535;28;20045;-92
2023/06/23 03:16:49;;;;;;;15.02;10.65;;;27.70;79.40;;;;;;5032715;28;20073;-92
2023/06/23 03:19:40;;;;;;;9.75;6.95;;;27.60;79.60;;;;;;5024583;28;20041;-93
2023/06/23 03:22:24;;;;;;;11.27;7.75;;;27.60;79.70;;;;;;5033303;28;20029;-96
2023/06/23 03:25:03;;;;;;;9.73;7.32;;;27.50;80.00;;;;;;5030441;28;20096;-92
2023/06/23 03:27:31;;;;;;;8.90;6.85;;;27.50;80.00;;;;;;5030084;28;20030;-93
2023/06/23 03:30:07;;;;;;;8.88;7.03;;;27.40;80.30;;;;;;5027984;28;20037;-93
2023/06/23 03:32:41;;;;;;;12.43;8.60;;;27.30;80.30;;;;;;5027391;28;20049;-94
2023/06/23 03:35:13;;;;;;;9.23;7.22;;;27.30;80.70;;;;;;5029805;28;20038;-94
2023/06/23 03:37:52;;;;;;;11.10;7.82;;;27.30;80.50;;;;;;5028978;28;20049;-92
2023/06/23 03:40:21;;;;;;;10.67;7.90;;;27.30;80.70;;;;;;5015184;28;20091;-93
2023/06/23 03:42:54;;;;;;;12.20;7.30;;;27.30;80.80;;;;;;5031644;28;20037;-92
2023/06/23 03:45:27;;;;;;;11.45;7.63;;;27.30;80.80;;;;;;5028781;28;20026;-93
2023/06/23 03:48:08;;;;;;;13.15;8.50;;;27.30;80.70;;;;;;5019759;28;20132;-92
2023/06/23 03:50:38;;;;;;;13.25;8.32;;;27.30;80.80;;;;;;5017136;28;20026;-94
2023/06/23 03:53:06;;;;;;;13.85;9.75;;;27.40;80.90;;;;;;5016292;28;20041;-92
2023/06/23 03:55:43;;;;;;;11.27;8.13;;;27.30;80.80;;;;;;5017087;28;20029;-92
2023/06/23 03:58:22;;;;;;;10.38;8.18;;;27.30;80.90;;;;;;5007198;28;20049;-94
2023/06/23 04:00:55;;;;;;;11.75;8.32;;;27.20;81.00;;;;;;5017391;28;20034;-94
2023/06/23 04:03:23;;;;;;;8.40;7.50;;;27.20;81.30;;;;;;5014143;28;20120;-93
2023/06/23 04:05:52;;;;;;;9.63;8.30;;;27.20;81.20;;;;;;5012884;28;20349;-94
2023/06/23 04:08:20;;;;;;;10.95;8.48;;;27.20;81.20;;;;;;5009938;28;20477;-94
2023/06/23 04:10:52;;;;;;;17.17;11.25;;;27.10;81.70;;;;;;5015494;28;20033;-93
2023/06/23 04:13:31;;;;;;;11.63;8.10;;;27.00;82.00;;;;;;5014674;28;20044;-93
2023/06/23 04:15:58;;;;;;;12.90;8.40;;;27.00;81.90;;;;;;5019483;28;20383;-90
2023/06/23 04:18:37;;;;;;;10.73;7.97;;;27.00;82.20;;;;;;5014296;28;20481;-95
2023/06/23 04:21:07;;;;;;;9.77;8.27;;;27.00;82.20;;;;;;5017623;28;20053;-94
2023/06/23 04:23:34;;;;;;;9.93;8.65;;;27.00;82.70;;;;;;5013992;28;20363;-94
2023/06/23 04:26:01;;;;;;;11.73;8.95;;;26.90;82.20;;;;;;5011483;28;20156;-92
2023/06/23 04:28:28;;;;;;;11.32;8.55;;;26.90;82.30;;;;;;5030520;22;20061;-83
2023/06/23 04:30:58;;;;;;;10.75;8.38;;;27.00;82.40;;;;;;5012449;28;20022;-87
2023/06/23 04:33:23;;;;;;;11.63;10.23;;;27.00;82.40;;;;;;5013027;28;20307;-84
2023/06/23 04:35:53;;;;;;;12.88;9.68;;;27.10;82.60;;;;;;5012218;28;20284;-84
2023/06/23 04:38:24;;;;;;;13.82;8.90;;;27.20;82.50;;;;;;5012439;28;20018;-84
2023/06/23 04:40:54;;;;;;;11.48;8.30;;;27.10;82.70;;;;;;5013327;28;20032;-82
2023/06/23 04:43:26;;;;;;;10.50;8.43;;;27.00;82.50;;;;;;5012861;28;20034;-81
2023/06/23 04:46:01;;;;;;;12.45;8.88;;;27.00;82.70;;;;;;5013335;28;20025;-84
2023/06/23 04:48:30;;;;;;;17.30;13.95;;;27.10;83.10;;;;;;5012430;28;20053;-84
2023/06/23 04:50:59;;;;;;;15.83;10.40;;;27.00;83.40;;;;;;5011749;28;20034;-84
2023/06/23 04:53:33;;;;;;;11.40;8.68;;;27.00;83.40;;;;;;5012939;28;20045;-84
2023/06/23 04:56:04;;;;;;;19.20;11.88;;;27.00;83.30;;;;;;5013209;28;20113;-84
2023/06/23 04:58:35;;;;;;;17.33;10.93;;;27.00;83.90;;;;;;5011591;28;20117;-84
2023/06/23 05:01:03;;;;;;;11.63;9.98;;;27.00;84.00;;;;;;5012754;28;20390;-83
2023/06/23 05:03:31;;;;;;;10.80;9.50;;;26.90;83.70;;;;;;5011276;28;20033;-84
2023/06/23 05:05:58;;;;;;;12.35;10.10;;;27.00;83.80;;;;;;5011802;28;20125;-84
2023/06/23 05:08:28;;;;;;;13.00;10.52;;;27.00;84.10;;;;;;5011541;28;20486;-84
2023/06/23 05:10:59;;;;;;;13.68;11.00;;;27.00;84.10;;;;;;5012038;28;20536;-84
2023/06/23 05:13:28;;;;;;;14.05;11.63;;;27.10;84.30;;;;;;5010210;28;20125;-84
2023/06/23 05:15:54;;;;;;;14.60;10.63;;;27.00;84.60;;;;;;5012559;28;20478;-83
2023/06/23 05:18:22;;;;;;;14.70;10.15;;;27.00;84.90;;;;;;5009503;28;20035;-83
2023/06/23 05:20:50;;;;;;;15.15;10.65;;;26.90;85.00;;;;;;5011642;28;20095;-83
2023/06/23 05:23:18;;;;;;;12.63;10.23;;;26.90;85.10;;;;;;5011795;28;20030;-83
2023/06/23 05:25:46;;;;;;;18.70;13.02;;;26.90;85.20;;;;;;5012034;28;20077;-83
2023/06/23 05:28:14;;;;;;;13.23;10.18;;;26.90;86.00;;;;;;5013330;28;20060;-83
2023/06/23 05:30:41;;;;;;;12.98;10.48;;;27.00;85.40;;;;;;5012048;28;20033;-84
2023/06/23 05:33:08;;;;;;;15.75;12.13;;;27.10;85.60;;;;;;5010817;28;20030;-84
2023/06/23 05:35:35;;;;;;;19.27;13.90;;;27.20;86.10;;;;;;5012601;28;20018;-84
2023/06/23 05:38:02;;;;;;;15.07;11.65;;;27.20;86.60;;;;;;5011945;28;20148;-83
2023/06/23 05:40:28;;;;;;;19.58;14.43;;;27.10;86.60;;;;;;5028278;28;20026;-83
2023/06/23 05:42:54;;;;;;;14.00;11.45;;;27.10;87.50;;;;;;5011348;28;20388;-83
2023/06/23 05:45:20;;;;;;;20.60;17.23;;;27.10;87.40;;;;;;5026836;28;20112;-82
2023/06/23 05:48:27;;;;;;;12.80;10.77;;;27.10;87.90;;;;;;5011337;28;20040;-83
2023/06/23 05:50:55;;;;;;;11.65;10.05;;;27.20;87.70;;;;;;4998671;28;20088;-83
2023/06/23 05:53:24;;;;;;;13.90;10.35;;;27.20;87.90;;;;;;5011662;28;20113;-83
2023/06/23 05:56:19;;;;;;;11.88;10.07;;;27.30;87.70;;;;;;5011988;28;20041;-84
2023/06/23 05:58:47;;;;;;;13.70;10.10;;;27.30;87.60;;;;;;5009620;28;20037;-83
2023/06/23 06:01:17;;;;;;;11.40;9.43;;;27.50;87.30;;;;;;5012684;28;20022;-84
2023/06/23 06:03:46;;;;;;;11.68;9.88;;;27.50;87.40;;;;;;5010423;28;20116;-84
2023/06/23 06:06:13;;;;;;;12.10;9.38;;;27.60;87.20;;;;;;5012520;28;20029;-86
2023/06/23 06:08:40;;;;;;;12.52;9.57;;;27.70;87.20;;;;;;5010087;28;20029;-86
2023/06/23 06:11:09;;;;;;;10.30;9.07;;;27.80;87.30;;;;;;5011366;28;20022;-87
2023/06/23 06:13:38;;;;;;;10.57;8.43;;;27.80;87.00;;;;;;5010764;28;20031;-86
2023/06/23 06:16:07;;;;;;;9.83;7.60;;;28.00;86.90;;;;;;4996368;28;20041;-85
2023/06/23 06:18:34;;;;;;;13.77;9.10;;;28.10;86.80;;;;;;5007369;28;20280;-84
2023/06/23 06:21:01;;;;;;;12.45;9.00;;;28.20;86.60;;;;;;5012083;28;20037;-85
2023/06/23 06:23:30;;;;;;;9.00;7.28;;;28.20;86.40;;;;;;5014500;28;20371;-89
2023/06/23 06:25:56;;;;;;;10.25;6.93;;;28.30;86.10;;;;;;5014115;28;20120;-86
2023/06/23 06:28:25;;;;;;;12.02;7.78;;;28.40;86.20;;;;;;5015207;28;20058;-87
2023/06/23 06:30:53;;;;;;;10.95;7.47;;;28.50;86.10;;;;;;5010976;28;20053;-87
2023/06/23 06:33:24;;;;;;;9.63;6.30;;;28.50;85.60;;;;;;5006020;28;20367;-88
2023/06/23 06:35:52;;;;;;;13.85;7.43;;;28.60;85.20;;;;;;5009807;28;20030;-86
2023/06/23 06:38:21;;;;;;;10.93;7.03;;;28.60;85.20;;;;;;5014956;28;20030;-86
2023/06/23 06:40:49;;;;;;;10.38;5.93;;;28.60;85.00;;;;;;5014862;28;20053;-86
2023/06/23 06:43:15;;;;;;;7.55;6.13;;;28.70;84.80;;;;;;5013367;28;20029;-87
2023/06/23 06:45:41;;;;;;;7.75;6.13;;;28.70;84.50;;;;;;5014593;28;20052;-86
2023/06/23 06:48:09;;;;;;;7.70;5.57;;;28.70;84.00;;;;;;5013145;28;20014;-85
2023/06/23 06:50:35;;;;;;;10.77;6.43;;;28.80;83.90;;;;;;5008272;28;20133;-83
2023/06/23 06:53:02;;;;;;;6.47;5.03;;;28.80;83.50;;;;;;5003945;28;20061;-84
2023/06/23 06:55:29;;;;;;;7.97;4.95;;;28.80;83.40;;;;;;5011339;28;20488;-83
2023/06/23 06:57:56;;;;;;;6.38;5.22;;;28.90;83.60;;;;;;5014095;28;20172;-82
2023/06/23 07:00:23;;;;;;;7.88;5.25;;;28.90;83.90;;;;;;5004591;28;20026;-86
2023/06/23 07:02:49;;;;;;;9.68;6.25;;;29.00;84.10;;;;;;5011202;28;20030;-86
2023/06/23 07:05:16;;;;;;;10.70;6.38;;;29.10;84.20;;;;;;5014020;28;20033;-88
2023/06/23 07:07:42;;;;;;;7.72;6.18;;;29.20;84.10;;;;;;5013301;28;20532;-87
2023/06/23 07:10:08;;;;;;;8.70;6.53;;;29.10;84.10;;;;;;5015316;28;20038;-87
2023/06/23 07:12:34;;;;;;;9.00;6.35;;;29.10;84.20;;;;;;5010413;28;20117;-86
2023/06/23 07:15:01;;;;;;;8.75;6.03;;;29.10;84.60;;;;;;5002478;28;20124;-87
2023/06/23 07:17:26;;;;;;;8.82;5.70;;;29.20;84.50;;;;;;5014643;28;20022;-86
2023/06/23 07:19:52;;;;;;;7.70;5.93;;;29.20;84.60;;;;;;5022525;28;20037;-86
2023/06/23 07:22:18;;;;;;;8.68;5.93;;;29.30;84.30;;;;;;5008775;28;20071;-89
2023/06/23 07:24:44;;;;;;;8.00;5.28;;;29.30;83.80;;;;;;5013508;28;20052;-90
2023/06/23 07:27:10;;;;;;;6.80;5.22;;;29.30;83.70;;;;;;5013564;28;20018;-86
2023/06/23 07:30:01;;;;;;;11.57;5.53;;;29.40;83.90;;;;;;5012371;28;20064;-84
2023/06/23 07:32:27;;;;;;;7.63;5.75;;;29.50;83.80;;;;;;5014583;28;20473;-84
2023/06/23 07:34:53;;;;;;;8.10;6.40;;;29.50;83.60;;;;;;5009028;28;20072;-84
2023/06/23 07:37:18;;;;;;;15.20;8.35;;;29.50;82.80;;;;;;5012279;28;20026;-84
2023/06/23 07:39:44;;;;;;;7.50;5.90;;;29.50;82.90;;;;;;5008274;28;20405;-84
2023/06/23 07:42:10;;;;;;;7.38;6.38;;;29.50;82.50;;;;;;5013924;28;20080;-84
2023/06/23 07:44:36;;;;;;;7.15;5.60;;;29.50;82.70;;;;;;5014347;28;20033;-85
2023/06/23 07:47:03;;;;;;;10.27;5.90;;;29.60;82.90;;;;;;5009957;28;20030;-85
2023/06/23 07:49:29;;;;;;;9.70;5.53;;;29.60;82.90;;;;;;5010559;28;20040;-86
2023/06/23 07:52:00;;;;;;;7.28;5.43;;;29.70;83.10;;;;;;5012936;28;20037;-84
2023/06/23 07:54:29;;;;;;;12.65;6.18;;;29.80;83.00;;;;;;5007749;28;20040;-84
2023/06/23 07:56:58;;;;;;;7.57;5.80;;;29.80;82.80;;;;;;5013672;28;20058;-86
2023/06/23 07:59:25;;;;;;;6.55;5.75;;;29.90;82.70;;;;;;5012223;28;20406;-86
2023/06/23 08:01:51;;;;;;;8.15;5.93;;;30.00;82.80;;;;;;5002452;28;20054;-87
2023/06/23 08:04:17;;;;;;;9.27;5.60;;;30.00;82.30;;;;;;5012620;28;20554;-88
2023/06/23 08:06:43;;;;;;;8.98;6.60;;;30.10;82.10;;;;;;5013856;28;20477;-87
2023/06/23 08:09:09;;;;;;;6.78;5.55;;;30.10;81.60;;;;;;5012794;28;20034;-86
2023/06/23 08:11:35;;;;;;;8.05;5.45;;;30.10;81.30;;;;;;5013666;28;20547;-87
2023/06/23 08:14:01;;;;;;;9.60;6.15;;;30.10;81.50;;;;;;5012964;28;20025;-87
2023/06/23 08:16:27;;;;;;;11.80;5.43;;;30.10;81.40;;;;;;5011993;28;20128;-84
2023/06/23 08:18:55;;;;;;;9.18;5.85;;;30.20;81.30;;;;;;5011851;28;20030;-89
2023/06/23 08:21:20;;;;;;;17.33;7.88;;;30.20;81.70;;;;;;4994216;28;20442;-89
2023/06/23 08:23:47;;;;;;;8.30;6.13;;;30.30;81.10;;;;;;5009344;28;20060;-86
2023/06/23 08:26:13;;;;;;;6.20;5.60;;;30.30;80.70;;;;;;5013667;28;20500;-85
2023/06/23 08:28:39;;;;;;;6.35;5.10;;;30.30;80.30;;;;;;5016525;28;20054;-86
2023/06/23 08:31:05;;;;;;;11.50;6.93;;;30.40;80.60;;;;;;5012630;28;20048;-85
2023/06/23 08:33:34;;;;;;;6.78;5.13;;;30.40;78.60;;;;;;5013264;28;20030;-91
2023/06/23 08:36:01;;;;;;;8.15;5.63;;;30.40;79.50;;;;;;5024618;28;20041;-85
2023/06/23 08:38:27;;;;;;;14.07;7.70;;;30.40;78.00;;;;;;5020978;28;20112;-91
2023/06/23 08:40:54;;;;;;;13.07;7.38;;;30.40;76.00;;;;;;5043057;28;20056;-87
2023/06/23 08:43:26;;;;;;;11.80;6.72;;;30.30;75.90;;;;;;5007397;28;20037;-85
2023/06/23 08:45:57;;;;;;;5.72;4.68;;;30.30;76.30;;;;;;5017567;28;20030;-84
2023/06/23 08:48:28;;;;;;;5.38;4.65;;;30.30;76.70;;;;;;5022479;28;20105;-85
2023/06/23 08:51:03;;;;;;;11.32;5.55;;;30.40;76.80;;;;;;5029779;28;20065;-89
2023/06/23 08:53:29;;;;;;;6.25;4.97;;;30.50;76.90;;;;;;5021668;28;20098;-89
2023/06/23 08:55:55;;;;;;;10.13;5.72;;;30.70;77.30;;;;;;5014909;28;20077;-85
2023/06/23 08:58:23;;;;;;;7.47;5.70;;;30.80;77.00;;;;;;4995963;28;20019;-85
2023/06/23 09:00:53;;;;;;;7.93;5.20;;;30.90;77.00;;;;;;4995016;28;20022;-85
2023/06/23 09:03:23;;;;;;;8.57;5.20;;;31.00;76.70;;;;;;5010946;28;20022;-84
2023/06/23 09:05:49;;;;;;;;;;;31.10;76.50;;;;;;5015374;28;20026;-83
2023/06/23 09:08:15;;;;;;;7.80;5.35;;;31.20;74.10;;;;;;5016962;28;19920;-84
2023/06/23 09:10:41;;;;;;;6.43;5.28;;;31.20;76.00;;;;;;5015176;28;20165;-85
2023/06/23 09:13:07;;;;;;;6.53;5.10;;;31.30;76.20;;;;;;5015003;28;20077;-85
2023/06/23 09:15:37;;;;;;;7.25;5.15;;;31.40;76.50;;;;;;5013938;28;20045;-84
2023/06/23 09:18:06;;;;;;;11.23;5.00;;;31.50;75.90;;;;;;5027382;28;20034;-84
2023/06/23 09:20:32;;;;;;;7.53;5.00;;;31.60;75.70;;;;;;5002531;28;20022;-83
2023/06/23 09:22:58;;;;;;;14.85;6.93;;;31.70;74.70;;;;;;5023251;28;20080;-83
2023/06/23 09:25:53;;;;;;;7.80;5.50;;;31.80;74.40;;;;;;5020869;28;20022;-81
2023/06/23 09:28:28;;;;;;;6.75;5.45;;;31.90;73.70;;;;;;5012699;28;20049;-86
2023/06/23 09:30:57;;;;;;;8.43;5.05;;;31.80;73.40;;;;;;5024105;28;20052;-84
2023/06/23 09:33:24;;;;;;;9.27;4.80;;;31.80;74.20;;;;;;5029587;28;21546;-84
2023/06/23 09:35:55;;;;;;;6.35;5.25;;;31.80;74.20;;;;;;5028374;28;20029;-83
2023/06/23 09:38:24;;;;;;;8.82;5.03;;;31.90;73.90;;;;;;5027941;28;20044;-88
2023/06/23 09:41:14;;;;;;;9.43;5.75;;;31.80;73.50;;;;;;5022796;28;20045;-90
2023/06/23 09:43:42;;;;;;;8.75;6.40;;;31.70;73.30;;;;;;5023708;28;20030;-90
2023/06/23 09:46:12;;;;;;;15.00;7.28;;;31.60;73.80;;;;;;5022351;28;20025;-90
2023/06/23 09:48:38;;;;;;;19.02;6.22;;;31.60;74.20;;;;;;5024274;28;20030;-88
2023/06/23 09:51:05;;;;;;;9.32;5.43;;;31.60;74.70;;;;;;5023905;28;20044;-88
2023/06/23 09:53:36;;;;;;;12.20;7.05;;;31.70;74.40;;;;;;5023451;28;20040;-91
2023/06/23 09:56:04;;;;;;;12.55;7.75;;;31.70;73.50;;;;;;5020337;28;20022;-89
2023/06/23 09:58:39;;;;;;;9.48;6.00;;;31.70;71.60;;;;;;5009459;28;20026;-90
2023/06/23 10:01:09;;;;;;;12.60;7.15;;;31.70;72.50;;;;;;5017077;28;20054;-90
2023/06/23 10:03:44;;;;;;;16.83;6.45;;;31.80;72.20;;;;;;5015257;28;20036;-88
2023/06/23 10:06:28;;;;;;;10.85;5.80;;;31.80;72.30;;;;;;5004004;28;20034;-92
2023/06/23 10:09:00;;;;;;;13.35;6.57;;;31.90;72.40;;;;;;5008798;28;20041;-92
2023/06/23 10:11:36;;;;;;;20.80;8.07;;;32.10;72.80;;;;;;5016667;28;20038;-89
2023/06/23 10:14:06;;;;;;;9.30;5.88;;;32.10;70.80;;;;;;5015606;28;20033;-88
2023/06/23 10:16:34;;;;;;;9.18;5.53;;;32.10;71.30;;;;;;5016218;28;20175;-84
2023/06/23 10:19:17;;;;;;;14.95;8.70;;;32.20;71.60;;;;;;5009859;28;20027;-84
2023/06/23 10:21:44;;;;;;;7.28;5.13;;;32.30;69.90;;;;;;5007057;28;20030;-83
2023/06/23 10:24:15;;;;;;;8.90;5.13;;;32.30;70.90;;;;;;5014306;28;20034;-83
2023/06/23 10:26:45;;;;;;;9.25;4.88;;;32.50;70.40;;;;;;5014935;28;20022;-84
2023/06/23 10:29:15;;;;;;;8.43;6.10;;;32.60;70.90;;;;;;5015941;28;20054;-86
2023/06/23 10:31:41;;;;;;;;;;;32.70;69.40;;;;;;5015329;28;20029;-86
2023/06/23 10:34:11;;;;;;;6.78;5.30;;;32.80;69.30;;;;;;5014784;28;19910;-87
2023/06/23 10:36:40;;;;;;;8.07;5.47;;;32.90;69.40;;;;;;5016143;28;20022;-87
2023/06/23 10:39:08;;;;;;;9.75;5.40;;;33.00;69.40;;;;;;5015732;28;20018;-85
2023/06/23 10:41:34;;;;;;;7.85;5.32;;;33.10;68.80;;;;;;5015446;28;20029;-85
2023/06/23 10:44:03;;;;;;;10.32;6.20;;;33.10;68.40;;;;;;5014288;28;20386;-86
2023/06/23 10:46:30;;;;;;;7.70;4.57;;;33.20;68.80;;;;;;5015634;28;20037;-85
2023/06/23 10:48:57;;;;;;;6.95;4.85;;;33.20;68.70;;;;;;5015069;28;20084;-85
2023/06/23 10:51:24;;;;;;;5.05;4.15;;;33.20;68.40;;;;;;5014410;28;20022;-85
2023/06/23 10:54:01;;;;;;;12.27;5.88;;;33.20;68.00;;;;;;5015285;28;20030;-90
2023/06/23 10:56:50;;;;;;;10.85;6.80;;;33.00;66.60;;;;;;5015593;28;20026;-89
2023/06/23 10:59:17;;;;;;;9.48;4.45;;;32.80;67.20;;;;;;5014565;28;20064;-88
2023/06/23 11:02:03;;;;;;;15.35;6.47;;;32.70;67.30;;;;;;5014168;28;20034;-89
2023/06/23 11:04:33;;;;;;;6.90;4.68;;;32.60;66.00;;;;;;5007455;28;20026;-88
2023/06/23 11:07:10;;;;;;;5.63;4.45;;;32.50;67.30;;;;;;5023853;28;20083;-91
2023/06/23 11:09:45;;;;;;;12.43;5.22;;;32.40;67.40;;;;;;5025661;28;20558;-93
2023/06/23 11:12:38;;;;;;;6.90;4.85;;;32.40;67.50;;;;;;5032746;28;20060;-86
2023/06/23 11:15:16;;;;;;;10.82;5.22;;;32.30;67.10;;;;;;5016618;28;20034;-90
2023/06/23 11:17:50;;;;;;;11.60;5.55;;;32.20;67.60;;;;;;5014973;28;20022;-85
2023/06/23 11:20:22;;;;;;;23.55;6.50;;;32.10;67.50;;;;;;5013383;28;20121;-88
2023/06/23 11:23:04;;;;;;;12.15;6.10;;;31.90;67.30;;;;;;5013882;28;20034;-88
2023/06/23 11:25:31;;;;;;;10.90;5.45;;;31.70;67.20;;;;;;5014934;28;20026;-86
2023/06/23 11:28:27;;;;;;;8.05;4.57;;;31.40;66.80;;;;;;5013819;28;20026;-85
2023/06/23 11:31:17;;;;;;;11.40;4.25;;;31.10;66.00;;;;;;4995411;28;20046;-89
2023/06/23 11:33:58;;;;;;;9.35;4.50;;;30.90;66.70;;;;;;5021884;28;20092;-85
2023/06/23 11:36:25;;;;;;;8.52;4.93;;;30.70;67.10;;;;;;4996772;28;20031;-83
2023/06/23 11:38:51;;;;;;;10.95;5.20;;;30.40;68.30;;;;;;5009282;28;20034;-85
2023/06/23 11:41:31;;;;;;;7.80;4.80;;;30.20;69.60;;;;;;5008929;28;20021;-82
2023/06/23 11:43:58;;;;;;;14.50;6.35;;;30.00;70.90;;;;;;5013038;28;20533;-85
2023/06/23 11:46:24;;;;;;;8.48;5.05;;;29.80;72.50;;;;;;5013003;28;20111;-84
2023/06/23 11:48:50;;;;;;;33.67;6.30;;;29.70;72.60;;;;;;5011568;28;20030;-83
2023/06/23 11:51:16;;;;;;;13.05;6.75;;;29.60;73.70;;;;;;5008328;28;20375;-84
2023/06/23 11:53:43;;;;;;;10.20;6.13;;;29.50;74.30;;;;;;5011895;28;20041;-83
2023/06/23 11:56:13;;;;;;;10.40;6.80;;;29.40;74.30;;;;;;5014346;28;20060;-83
2023/06/23 11:58:38;;;;;;;10.05;6.25;;;29.30;74.70;;;;;;5011869;28;20045;-84
2023/06/23 12:01:04;;;;;;;9.48;6.10;;;29.20;74.80;;;;;;5012669;28;20034;-84
2023/06/23 12:03:32;;;;;;;12.02;5.75;;;29.20;74.60;;;;;;5014297;28;20125;-84
2023/06/23 12:05:59;;;;;;;11.25;5.72;;;29.10;74.70;;;;;;5013637;28;20026;-85
2023/06/23 12:08:27;;;;;;;9.48;6.85;;;29.00;74.90;;;;;;5014447;28;20030;-85
2023/06/23 12:10:54;;;;;;;21.73;8.13;;;28.90;75.30;;;;;;5013702;28;20081;-84
2023/06/23 12:13:20;;;;;;;8.35;5.90;;;28.90;75.70;;;;;;5014536;28;20046;-84
2023/06/23 12:15:47;;;;;;;8.27;5.85;;;28.90;75.60;;;;;;5013338;28;20429;-84
2023/06/23 12:18:13;;;;;;;13.15;6.75;;;28.90;76.10;;;;;;5012011;28;20553;-85
2023/06/23 12:20:42;;;;;;;12.30;6.78;;;28.90;76.40;;;;;;5011803;28;20065;-83
2023/06/23 12:23:10;;;;;;;6.82;5.75;;;28.90;76.50;;;;;;4999766;28;20023;-83
2023/06/23 12:25:43;;;;;;;10.20;6.22;;;28.90;76.30;;;;;;5010651;28;20045;-84
2023/06/23 12:28:14;;;;;;;10.48;7.93;;;29.00;76.50;;;;;;5013204;28;20099;-85
2023/06/23 12:30:43;;;;;;;11.15;9.15;;;29.00;76.90;;;;;;5011324;28;20034;-84
2023/06/23 12:33:29;;;;;;;16.58;9.60;;;29.00;77.20;;;;;;5012295;28;20034;-89
2023/06/23 12:36:00;;;;;;;13.48;9.25;;;28.90;78.00;;;;;;5012456;28;20072;-85
2023/06/23 12:38:27;;;;;;;14.18;8.23;;;28.90;79.30;;;;;;5007374;28;20022;-85
2023/06/23 12:40:54;;;;;;;9.48;7.00;;;28.80;79.40;;;;;;5012778;28;20498;-84
2023/06/23 12:43:20;;;;;;;13.75;8.02;;;28.70;79.80;;;;;;5011896;28;20026;-85
2023/06/23 12:45:53;;;;;;;11.63;7.60;;;28.70;80.20;;;;;;5012418;28;20030;-84
2023/06/23 12:48:22;;;;;;;15.13;7.00;;;28.70;80.30;;;;;;5011494;28;20026;-84
2023/06/23 12:50:53;;;;;;;7.40;6.50;;;28.50;80.30;;;;;;5013047;28;20486;-84
2023/06/23 12:53:19;;;;;;;7.43;6.13;;;28.50;80.30;;;;;;5012220;28;20030;-83
2023/06/23 12:55:45;;;;;;;9.18;6.60;;;28.50;80.20;;;;;;5012804;28;20029;-83
2023/06/23 12:58:11;;;;;;;19.55;9.10;;;28.60;80.20;;;;;;5011340;28;20073;-82
2023/06/23 13:00:37;;;;;;;17.20;8.02;;;28.50;79.90;;;;;;5012171;28;20030;-82